WIOO/PNK METAR and TAF weather

Enter ICAO airport designator
Station Type Date Time Source
WIOO METAR 2020/04/01 13:00 UTC NOAA

WIOO 011300Z 00000KT 3000 HZ FEW012 28/25 Q1009 NOSIG


Station Type Date Time Source
WIOO Decoded METAR 2020/04/01 13:00 UTC NOAA

Pontianak / Supadio, Indonesia (WIOO) 00-09S 109-24E 3M
Apr 01, 2020 - 09:00 AM EDT / 2020.04.01 1300 UTC
Wind: Calm:0
Visibility: 1 mile(s):0
Sky conditions: mostly clear
Weather: haze
Temperature: 82 F (28 C)
Dew Point: 77 F (25 C)
Relative Humidity: 83%
Pressure (altimeter): 29.80 in. Hg (1009 hPa)
ob: WIOO 011300Z 00000KT 3000 HZ FEW012 28/25 Q1009 NOSIG
cycle: 13

Station Type Date Time Source
WIOO TAF 2014/03/26 00:51 UTC NOAA

TAF TAF WIOO 252300Z 2600/2624 10002KT 7000 SCT011
BECMG 2601/2603 08005KT 9999
TEMPO 2607/2610 15010KT 3000

Example: see airport list